createdAt,value
2018-03-04T00:01:36.641Z,93503.46
2018-03-04T00:04:39.898Z,93509.84
2018-03-04T00:07:43.173Z,93507.89
2018-03-04T00:10:46.451Z,93516.06
2018-03-04T00:13:49.729Z,93514.84
2018-03-04T00:16:53.027Z,93519.75
2018-03-04T00:19:57.053Z,93518.73
2018-03-04T00:23:00.316Z,93522.30
2018-03-04T00:26:04.348Z,93517.02
2018-03-04T00:29:07.621Z,93521.65
2018-03-04T00:32:11.078Z,93521.30
2018-03-04T00:35:14.512Z,93523.52
2018-03-04T00:38:17.800Z,93523.19
2018-03-04T00:41:21.243Z,93527.02
2018-03-04T00:44:24.512Z,93522.19
2018-03-04T00:47:27.785Z,93523.94
2018-03-04T00:50:31.136Z,93519.19
2018-03-04T00:53:34.414Z,93528.30
2018-03-04T00:56:38.457Z,93530.47
2018-03-04T00:59:41.742Z,93531.09
2018-03-04T01:02:45.772Z,93538.48
2018-03-04T01:05:49.413Z,93541.25
2018-03-04T01:08:52.697Z,93549.86
2018-03-04T01:11:55.968Z,93553.01
2018-03-04T01:14:59.255Z,93542.64
2018-03-04T01:18:02.965Z,93548.88
2018-03-04T01:21:06.232Z,93541.72
2018-03-04T01:24:09.553Z,93548.11
2018-03-04T01:27:12.787Z,93547.88
2018-03-04T01:30:16.046Z,93552.50
2018-03-04T01:33:19.310Z,93552.83
2018-03-04T01:36:22.578Z,93557.52
2018-03-04T01:39:26.425Z,93549.66
2018-03-04T01:42:30.776Z,93559.40
2018-03-04T01:45:34.079Z,93560.77
2018-03-04T01:48:38.096Z,93559.07
2018-03-04T01:51:54.077Z,93562.01
2018-03-04T01:54:58.109Z,93556.60
2018-03-04T01:58:01.402Z,93562.69
2018-03-04T02:01:04.673Z,93567.02
2018-03-04T02:04:08.709Z,93571.74
2018-03-04T02:07:12.736Z,93570.40
2018-03-04T02:10:16.030Z,93566.48
2018-03-04T02:13:19.308Z,93574.22
2018-03-04T02:16:23.339Z,93567.20
2018-03-04T02:19:26.805Z,93573.94
2018-03-04T02:22:30.134Z,93572.58
2018-03-04T02:25:33.411Z,93567.80
2018-03-04T02:28:37.438Z,93572.86
2018-03-04T02:31:41.465Z,93577.02
2018-03-04T02:34:44.746Z,93567.67
2018-03-04T02:37:48.869Z,93572.91
2018-03-04T02:40:52.988Z,93575.88
2018-03-04T02:43:56.254Z,93583.62
2018-03-04T02:46:59.528Z,93587.81
2018-03-04T02:50:03.269Z,93591.98
2018-03-04T02:53:06.691Z,93588.95
2018-03-04T02:56:09.978Z,93588.23
2018-03-04T02:59:14.030Z,93585.81
2018-03-04T03:02:17.302Z,93585.63
2018-03-04T03:05:20.558Z,93592.30
2018-03-04T03:08:23.930Z,93590.11
2018-03-04T03:11:27.300Z,93590.38
2018-03-04T03:14:30.564Z,93591.50
2018-03-04T03:17:33.840Z,93591.53
2018-03-04T03:20:37.105Z,93589.63
2018-03-04T03:23:40.374Z,93596.28
2018-03-04T03:26:44.406Z,93599.52
2018-03-04T03:29:47.693Z,93593.13
2018-03-04T03:32:51.724Z,93581.97
2018-03-04T03:35:54.994Z,93586.66
2018-03-04T03:38:59.046Z,93585.65
2018-03-04T03:42:02.330Z,93586.19
2018-03-04T03:45:05.589Z,93578.72
2018-03-04T03:48:09.027Z,93568.70
2018-03-04T03:51:12.298Z,93559.91
2018-03-04T03:54:16.338Z,93557.91
2018-03-04T03:57:19.624Z,93555.33
2018-03-04T04:00:23.652Z,93556.80
2018-03-04T04:03:26.923Z,93557.38
2018-03-04T04:06:30.946Z,93564.16
2018-03-04T04:09:34.238Z,93563.88
2018-03-04T04:12:38.279Z,93558.02
2018-03-04T04:15:41.558Z,93555.36
2018-03-04T04:18:45.593Z,93555.13
2018-03-04T04:21:49.064Z,93558.95
2018-03-04T04:24:53.101Z,93556.73
2018-03-04T04:27:56.386Z,93555.67
2018-03-04T04:31:00.522Z,93552.66
2018-03-04T04:34:03.806Z,93555.75
2018-03-04T04:37:07.065Z,93556.42
2018-03-04T04:40:10.404Z,93547.41
2018-03-04T04:43:13.678Z,93544.37
2018-03-04T04:46:17.707Z,93545.09
2018-03-04T04:49:21.792Z,93543.45
2018-03-04T04:52:25.061Z,93543.28
2018-03-04T04:55:28.372Z,93538.03
2018-03-04T04:58:31.634Z,93540.84
2018-03-04T05:01:34.896Z,93548.64
2018-03-04T05:04:38.936Z,93547.33
2018-03-04T05:07:42.206Z,93545.97
2018-03-04T05:10:45.944Z,93542.54
2018-03-04T05:13:49.221Z,93539.05
2018-03-04T05:16:53.362Z,93534.41
2018-03-04T05:19:56.629Z,93544.33
2018-03-04T05:23:01.556Z,93546.36
2018-03-04T05:26:05.681Z,93549.50
2018-03-04T05:29:09.720Z,93540.65
2018-03-04T05:32:12.993Z,93534.70
2018-03-04T05:35:17.025Z,93532.24
2018-03-04T05:38:20.330Z,93548.02
2018-03-04T05:41:23.625Z,93542.20
2018-03-04T05:44:26.906Z,93538.57
2018-03-04T05:47:30.938Z,93545.63
2018-03-04T05:50:34.211Z,93552.42
2018-03-04T05:53:37.485Z,93553.54
2018-03-04T05:56:40.785Z,93558.55
2018-03-04T05:59:44.139Z,93561.56
2018-03-04T06:02:47.413Z,93551.49
2018-03-04T06:05:50.702Z,93551.88
2018-03-04T06:08:54.743Z,93542.45
2018-03-04T06:11:58.136Z,93551.20
2018-03-04T06:15:01.416Z,93553.86
2018-03-04T06:18:05.461Z,93550.34
2018-03-04T06:21:08.750Z,93549.42
2018-03-04T06:24:12.017Z,93551.64
2018-03-04T06:27:15.359Z,93547.97
2018-03-04T06:30:18.816Z,93548.47
2018-03-04T06:33:22.867Z,93548.97
2018-03-04T06:36:26.156Z,93558.27
2018-03-04T06:39:29.570Z,93558.61
2018-03-04T06:42:32.881Z,93561.04
2018-03-04T06:45:36.150Z,93559.41
2018-03-04T06:48:39.421Z,93561.15
2018-03-04T06:51:42.674Z,93556.76
2018-03-04T06:54:45.962Z,93547.28
2018-03-04T06:57:49.233Z,93555.50
2018-03-04T07:00:52.527Z,93554.41
2018-03-04T07:03:56.564Z,93556.91
2018-03-04T07:06:59.832Z,93551.10
2018-03-04T07:10:04.129Z,93546.38
2018-03-04T07:13:08.281Z,93543.16
2018-03-04T07:16:12.330Z,93550.70
2018-03-04T07:19:15.596Z,93548.29
2018-03-04T07:22:18.874Z,93538.80
2018-03-04T07:25:22.906Z,93543.13
2018-03-04T07:28:26.926Z,93550.16
2018-03-04T07:31:30.197Z,93549.91
2018-03-04T07:34:33.466Z,93552.39
2018-03-04T07:37:36.763Z,93564.58
2018-03-04T07:40:40.175Z,93564.95
2018-03-04T07:43:43.444Z,93559.56
2018-03-04T07:46:46.750Z,93559.59
2018-03-04T07:49:50.026Z,93557.04
2018-03-04T07:52:53.408Z,93557.47
2018-03-04T07:55:56.677Z,93552.50
2018-03-04T07:58:59.950Z,93554.77
2018-03-04T08:02:04.132Z,93543.66
2018-03-04T08:05:07.411Z,93544.66
2018-03-04T08:08:11.445Z,93539.66
2018-03-04T08:11:14.717Z,93546.73
2018-03-04T08:14:18.758Z,93542.25
2018-03-04T08:17:22.042Z,93537.47
2018-03-04T08:20:25.306Z,93544.53
2018-03-04T08:23:29.136Z,93538.37
2018-03-04T08:26:50.901Z,93520.86
2018-03-04T08:29:54.197Z,93519.92
2018-03-04T08:32:57.463Z,93520.05
2018-03-04T08:36:01.499Z,93522.00
2018-03-04T08:39:04.774Z,93525.28
2018-03-04T08:42:08.899Z,93515.06
2018-03-04T08:45:13.017Z,93518.05
2018-03-04T08:48:16.282Z,93514.20
2018-03-04T08:51:20.089Z,93513.60
2018-03-04T08:55:05.702Z,93508.33
2018-03-04T08:58:09.752Z,93506.20
2018-03-04T09:01:13.049Z,93517.38
2018-03-04T09:04:16.327Z,93513.83
2018-03-04T09:07:19.604Z,93515.26
2018-03-04T09:10:22.972Z,93515.45
2018-03-04T09:13:26.358Z,93509.41
2018-03-04T09:16:29.633Z,93501.59
2018-03-04T09:19:32.968Z,93502.32
2018-03-04T09:22:36.413Z,93503.67
2018-03-04T09:25:39.728Z,93505.55
2018-03-04T09:28:43.193Z,93507.00
2018-03-04T09:31:46.524Z,93503.99
2018-03-04T09:34:50.095Z,93497.57
2018-03-04T09:37:53.516Z,93501.53
2018-03-04T09:40:57.570Z,93497.47
2018-03-04T09:44:00.848Z,93486.72
2018-03-04T09:47:04.158Z,93485.57
2018-03-04T09:50:07.442Z,93483.61
2018-03-04T09:53:10.697Z,93485.69
2018-03-04T09:56:14.008Z,93484.97
2018-03-04T09:59:18.205Z,93487.83
2018-03-04T10:02:21.471Z,93484.87
2018-03-04T10:05:24.743Z,93487.16
2018-03-04T10:08:28.006Z,93482.65
2018-03-04T10:11:31.275Z,93486.40
2018-03-04T10:14:34.540Z,93484.55
2018-03-04T10:17:37.848Z,93475.60
2018-03-04T10:20:41.849Z,93461.84
2018-03-04T10:23:45.118Z,93458.20
2018-03-04T10:26:49.153Z,93456.32
2018-03-04T10:29:52.410Z,93455.59
2018-03-04T10:32:55.757Z,93444.10
2018-03-04T10:35:59.121Z,93446.96
2018-03-04T10:39:02.581Z,93443.88
2018-03-04T10:42:05.871Z,93435.05
2018-03-04T10:45:09.999Z,93438.83
2018-03-04T10:48:13.347Z,93434.28
2018-03-04T10:51:17.856Z,93431.69
2018-03-04T10:54:21.197Z,93435.13
2018-03-04T10:57:24.461Z,93425.48
2018-03-04T11:00:27.746Z,93415.67
2018-03-04T11:03:31.029Z,93407.73
2018-03-04T11:06:39.814Z,93404.94
2018-03-04T11:09:48.601Z,93405.41
2018-03-04T11:12:52.069Z,93394.69
2018-03-04T11:15:56.201Z,93397.49
2018-03-04T11:19:00.229Z,93395.88
2018-03-04T11:22:03.847Z,93394.86
2018-03-04T11:25:07.118Z,93385.47
2018-03-04T11:28:11.237Z,93375.13
2018-03-04T11:31:14.530Z,93374.12
2018-03-04T11:34:17.784Z,93372.61
2018-03-04T11:37:21.069Z,93384.76
2018-03-04T11:40:24.333Z,93380.42
2018-03-04T11:43:27.605Z,93370.95
2018-03-04T11:46:30.861Z,93368.40
2018-03-04T11:49:34.130Z,93367.24
2018-03-04T11:52:38.267Z,93368.91
2018-03-04T11:55:41.525Z,93363.58
2018-03-04T11:58:44.789Z,93358.77
2018-03-04T12:01:48.165Z,93355.73
2018-03-04T12:04:51.675Z,93353.72
2018-03-04T12:07:54.939Z,93339.52
2018-03-04T12:10:58.236Z,93339.56
2018-03-04T12:14:01.521Z,93346.75
2018-03-04T12:17:04.788Z,93349.45
2018-03-04T12:20:08.062Z,93345.83
2018-03-04T12:23:11.381Z,93337.77
2018-03-04T12:26:14.703Z,93333.28
2018-03-04T12:29:17.998Z,93343.83
2018-03-04T12:32:21.297Z,93338.81
2018-03-04T12:35:24.562Z,93336.27
2018-03-04T12:38:27.871Z,93337.56
2018-03-04T12:41:31.134Z,93329.03
2018-03-04T12:44:35.289Z,93322.08
2018-03-04T12:47:38.576Z,93318.17
2018-03-04T12:50:41.842Z,93320.61
2018-03-04T12:53:45.898Z,93319.30
2018-03-04T12:56:49.164Z,93308.56
2018-03-04T12:59:53.276Z,93304.33
2018-03-04T13:02:57.300Z,93305.02
2018-03-04T13:06:01.421Z,93307.84
2018-03-04T13:09:05.548Z,93292.63
2018-03-04T13:12:08.878Z,93295.27
2018-03-04T13:15:12.132Z,93294.13
2018-03-04T13:18:16.282Z,93290.67
2018-03-04T13:21:19.653Z,93293.29
2018-03-04T13:24:23.684Z,93295.06
2018-03-04T13:27:26.982Z,93296.35
2018-03-04T13:30:30.366Z,93297.71
2018-03-04T13:33:33.621Z,93287.55
2018-03-04T13:36:36.952Z,93300.49
2018-03-04T13:39:40.226Z,93292.73
2018-03-04T13:42:43.496Z,93291.89
2018-03-04T13:45:46.793Z,93293.70
2018-03-04T13:48:50.602Z,93292.04
2018-03-04T13:51:53.870Z,93285.34
2018-03-04T13:54:57.188Z,93288.17
2018-03-04T13:58:00.539Z,93286.58
2018-03-04T14:01:03.815Z,93278.02
2018-03-04T14:04:07.885Z,93282.67
2018-03-04T14:07:11.159Z,93280.80
2018-03-04T14:10:14.430Z,93271.47
2018-03-04T14:13:18.455Z,93277.31
2018-03-04T14:16:21.780Z,93279.54
2018-03-04T14:19:25.069Z,93276.69
2018-03-04T14:22:29.349Z,93280.03
2018-03-04T14:25:33.409Z,93279.75
2018-03-04T14:28:36.711Z,93274.01
2018-03-04T14:31:39.978Z,93274.36
2018-03-04T14:34:44.048Z,93269.17
2018-03-04T14:37:47.470Z,93263.70
2018-03-04T14:40:51.522Z,93259.34
2018-03-04T14:43:55.557Z,93261.61
2018-03-04T14:46:59.894Z,93259.34
2018-03-04T14:50:03.420Z,93248.89
2018-03-04T14:53:07.503Z,93244.62
2018-03-04T14:56:10.766Z,93235.38
2018-03-04T14:59:14.103Z,93232.66
2018-03-04T15:02:17.347Z,93236.77
2018-03-04T15:05:20.637Z,93234.80
2018-03-04T15:08:23.899Z,93226.48
2018-03-04T15:11:27.185Z,93223.80
2018-03-04T15:14:30.693Z,93223.42
2018-03-04T15:17:33.957Z,93218.94
2018-03-04T15:20:37.329Z,93224.05
2018-03-04T15:23:41.353Z,93217.33
2018-03-04T15:26:44.629Z,93213.02
2018-03-04T15:29:48.685Z,93217.36
2018-03-04T15:32:56.913Z,93215.55
2018-03-04T15:36:00.197Z,93215.34
2018-03-04T15:39:03.460Z,93212.59
2018-03-04T15:42:07.507Z,93210.53
2018-03-04T15:45:11.940Z,93202.28
2018-03-04T15:48:15.197Z,93189.09
2018-03-04T15:51:18.610Z,93194.69
2018-03-04T15:54:22.658Z,93189.98
2018-03-04T15:57:25.929Z,93193.52
2018-03-04T16:00:31.482Z,93193.17
2018-03-04T16:03:34.750Z,93192.25
2018-03-04T16:06:38.025Z,93187.74
2018-03-04T16:09:41.306Z,93189.78
2018-03-04T16:12:44.578Z,93190.16
2018-03-04T16:15:48.615Z,93185.74
2018-03-04T16:18:51.886Z,93195.52
2018-03-04T16:21:56.122Z,93203.59
2018-03-04T16:25:01.391Z,93200.81
2018-03-04T16:28:04.671Z,93201.19
2018-03-04T16:31:08.712Z,93201.36
2018-03-04T16:34:11.981Z,93207.27
2018-03-04T16:37:16.166Z,93200.27
2018-03-04T16:40:19.503Z,93206.01
2018-03-04T16:43:22.823Z,93211.40
2018-03-04T16:46:26.869Z,93207.01
2018-03-04T16:49:31.200Z,93196.05
2018-03-04T16:52:34.556Z,93193.48
2018-03-04T16:55:37.950Z,93184.16
2018-03-04T16:58:42.646Z,93188.23
2018-03-04T17:01:46.681Z,93188.01
2018-03-04T17:04:49.941Z,93191.23
2018-03-04T17:07:53.211Z,93198.41
2018-03-04T17:10:56.701Z,93197.55
2018-03-04T17:14:00.026Z,93193.16
2018-03-04T17:17:03.313Z,93186.54
2018-03-04T17:20:06.649Z,93180.80
2018-03-04T17:23:10.010Z,93182.72
2018-03-04T17:26:13.597Z,93186.19
2018-03-04T17:29:17.641Z,93185.77
2018-03-04T17:32:20.982Z,93188.03
2018-03-04T17:35:24.333Z,93180.55
2018-03-04T17:38:27.618Z,93189.38
2018-03-04T17:41:32.900Z,93190.42
2018-03-04T17:44:36.209Z,93184.16
2018-03-04T17:47:39.477Z,93179.45
2018-03-04T17:50:42.756Z,93188.27
2018-03-04T17:53:46.837Z,93194.08
2018-03-04T17:56:50.277Z,93189.41
2018-03-04T17:59:53.574Z,93183.91
2018-03-04T18:02:56.887Z,93181.62
2018-03-04T18:06:00.231Z,93177.23
2018-03-04T18:09:03.503Z,93164.44
2018-03-04T18:12:06.954Z,93161.48
2018-03-04T18:15:10.987Z,93157.55
2018-03-04T18:18:14.277Z,93146.38
2018-03-04T18:21:18.309Z,93150.00
2018-03-04T18:24:21.647Z,93151.53
2018-03-04T18:27:24.930Z,93146.22
2018-03-04T18:30:28.213Z,93150.86
2018-03-04T18:33:32.246Z,93150.61
2018-03-04T18:36:35.517Z,93151.42
2018-03-04T18:39:38.793Z,93148.19
2018-03-04T18:42:42.081Z,93152.36
2018-03-04T18:45:45.457Z,93147.81
2018-03-04T18:48:49.547Z,93147.59
2018-03-04T18:51:52.886Z,93142.09
2018-03-04T18:54:56.160Z,93132.79
2018-03-04T18:58:00.293Z,93127.09
2018-03-04T19:01:04.315Z,93126.49
2018-03-04T19:04:08.026Z,93125.41
2018-03-04T19:07:12.275Z,93117.80
2018-03-04T19:10:15.653Z,93122.28
2018-03-04T19:13:19.733Z,93124.03
2018-03-04T19:16:23.803Z,93114.12
2018-03-04T19:19:27.453Z,93112.68
2018-03-04T19:22:30.745Z,93108.27
2018-03-04T19:25:34.830Z,93107.11
2018-03-04T19:28:38.165Z,93104.39
2018-03-04T19:31:41.458Z,93102.70
2018-03-04T19:34:44.734Z,93096.24
2018-03-04T19:37:48.005Z,93095.31
2018-03-04T19:40:51.302Z,93106.27
2018-03-04T19:43:54.621Z,93109.28
2018-03-04T19:46:57.885Z,93123.14
2018-03-04T19:50:01.935Z,93125.45
2018-03-04T19:53:06.710Z,93121.84
2018-03-04T19:56:10.001Z,93127.85
2018-03-04T19:59:13.279Z,93125.39
2018-03-04T20:02:16.665Z,93122.92
2018-03-04T20:05:20.724Z,93126.22
2018-03-04T20:08:24.036Z,93129.60
2018-03-04T20:11:27.396Z,93122.76
2018-03-04T20:14:31.540Z,93126.09
2018-03-04T20:17:36.813Z,93130.22
2018-03-04T20:20:41.826Z,93136.09
2018-03-04T20:23:45.133Z,93147.05
2018-03-04T20:26:50.742Z,93137.27
2018-03-04T20:29:54.353Z,93138.61
2018-03-04T20:32:57.655Z,93140.23
2018-03-04T20:36:00.937Z,93128.08
2018-03-04T20:39:04.199Z,93132.39
2018-03-04T20:42:07.489Z,93137.78
2018-03-04T20:45:10.759Z,93136.45
2018-03-04T20:48:14.030Z,93137.23
2018-03-04T20:51:18.071Z,93126.41
2018-03-04T20:54:21.513Z,93132.91
2018-03-04T20:57:24.793Z,93138.02
2018-03-04T21:00:28.232Z,93138.02
2018-03-04T21:03:31.521Z,93136.41
2018-03-04T21:06:34.874Z,93133.37
2018-03-04T21:09:38.152Z,93138.87
2018-03-04T21:12:42.190Z,93123.79
2018-03-04T21:15:45.451Z,93129.28
2018-03-04T21:18:49.491Z,93129.99
2018-03-04T21:21:52.759Z,93118.52
2018-03-04T21:24:56.090Z,93126.66
2018-03-04T21:27:59.360Z,93124.91
2018-03-04T21:31:02.620Z,93120.42
2018-03-04T21:34:05.989Z,93114.95
2018-03-04T21:37:09.261Z,93117.19
2018-03-04T21:40:13.303Z,93131.16
2018-03-04T21:43:16.612Z,93122.52
2018-03-04T21:46:19.883Z,93113.51
2018-03-04T21:49:23.152Z,93115.24
2018-03-04T21:52:26.472Z,93115.59
2018-03-04T21:55:29.718Z,93109.48
2018-03-04T21:58:33.773Z,93102.98
2018-03-04T22:01:37.057Z,93117.77
2018-03-04T22:04:40.320Z,93120.73
2018-03-04T22:07:44.388Z,93123.94
2018-03-04T22:10:47.656Z,93124.55
2018-03-04T22:13:50.932Z,93124.28
2018-03-04T22:16:54.971Z,93123.51
2018-03-04T22:19:58.242Z,93132.75
2018-03-04T22:23:02.278Z,93131.02
2018-03-04T22:26:05.537Z,93127.74
2018-03-04T22:29:09.631Z,93134.93
2018-03-04T22:32:12.899Z,93135.31
2018-03-04T22:35:16.931Z,93144.31
2018-03-04T22:38:20.204Z,93141.91
2018-03-04T22:41:24.233Z,93151.13
2018-03-04T22:44:27.518Z,93153.75
2018-03-04T22:47:31.566Z,93154.74
2018-03-04T22:50:34.826Z,93160.44
2018-03-04T22:53:40.133Z,93163.14
2018-03-04T22:56:43.399Z,93170.59
2018-03-04T22:59:46.677Z,93168.86
2018-03-04T23:02:50.099Z,93180.41
2018-03-04T23:05:53.349Z,93190.82
2018-03-04T23:08:56.620Z,93191.05
2018-03-04T23:12:00.760Z,93187.12
2018-03-04T23:15:04.038Z,93192.01
2018-03-04T23:18:08.076Z,93211.40
2018-03-04T23:21:11.343Z,93232.16
2018-03-04T23:24:14.638Z,93287.59
2018-03-04T23:27:17.910Z,93302.27
2018-03-04T23:30:21.962Z,93288.52
2018-03-04T23:33:25.637Z,93283.91
2018-03-04T23:36:29.671Z,93264.98
2018-03-04T23:39:32.960Z,93264.06
2018-03-04T23:42:36.257Z,93271.22
2018-03-04T23:45:39.537Z,93275.19
2018-03-04T23:48:43.593Z,93284.05
2018-03-04T23:51:46.856Z,93283.88
2018-03-04T23:54:50.914Z,93284.43
2018-03-04T23:57:54.189Z,93292.27
